createdAt,value
2019-05-06T00:00:05.354Z,2.75
2019-05-06T00:01:05.275Z,2.75
2019-05-06T00:02:05.233Z,2.72
2019-05-06T00:03:05.255Z,2.71
2019-05-06T00:04:05.233Z,2.69
2019-05-06T00:05:05.323Z,2.69
2019-05-06T00:06:05.192Z,2.69
2019-05-06T00:07:05.195Z,2.71
2019-05-06T00:08:05.184Z,2.72
2019-05-06T00:09:05.184Z,2.71
2019-05-06T00:10:05.763Z,2.71
2019-05-06T00:11:05.248Z,2.71
2019-05-06T00:12:05.142Z,2.72
2019-05-06T00:13:05.143Z,2.75
2019-05-06T00:14:05.122Z,2.77
2019-05-06T00:15:05.122Z,2.79
2019-05-06T00:16:05.108Z,2.82
2019-05-06T00:17:05.204Z,2.84
2019-05-06T00:18:05.075Z,2.85
2019-05-06T00:19:05.140Z,2.89
2019-05-06T00:20:05.062Z,2.90
2019-05-06T00:21:05.030Z,2.92
2019-05-06T00:22:05.049Z,2.95
2019-05-06T00:23:05.112Z,2.93
2019-05-06T00:24:05.011Z,2.95
2019-05-06T00:25:05.430Z,2.95
2019-05-06T00:26:04.984Z,2.96
2019-05-06T00:27:04.984Z,2.96
2019-05-06T00:28:06.205Z,2.96
2019-05-06T00:29:04.963Z,2.95
2019-05-06T00:30:04.955Z,2.95
2019-05-06T00:31:12.726Z,2.93
2019-05-06T00:32:06.011Z,2.93
2019-05-06T00:33:04.993Z,2.90
2019-05-06T00:34:04.940Z,2.92
2019-05-06T00:35:04.884Z,2.92
2019-05-06T00:36:04.892Z,2.93
2019-05-06T00:37:04.979Z,2.95
2019-05-06T00:38:04.880Z,2.96
2019-05-06T00:39:04.841Z,2.95
2019-05-06T00:40:04.865Z,2.97
2019-05-06T00:41:04.843Z,2.97
2019-05-06T00:42:04.819Z,2.96
2019-05-06T00:43:04.922Z,2.95
2019-05-06T00:44:04.800Z,2.97
2019-05-06T00:45:04.782Z,2.96
2019-05-06T00:46:04.889Z,2.95
2019-05-06T00:47:04.760Z,2.95
2019-05-06T00:48:04.880Z,2.93
2019-05-06T00:49:04.743Z,2.90
2019-05-06T00:50:04.729Z,2.89
2019-05-06T00:51:04.766Z,2.87
2019-05-06T00:52:04.709Z,2.89
2019-05-06T00:53:04.716Z,2.85
2019-05-06T00:54:04.783Z,2.84
2019-05-06T00:55:04.670Z,2.84
2019-05-06T00:56:04.707Z,2.84
2019-05-06T00:57:04.659Z,2.84
2019-05-06T00:58:04.639Z,2.82
2019-05-06T00:59:04.709Z,2.79
2019-05-06T01:00:04.628Z,2.79
2019-05-06T01:01:04.855Z,2.78
2019-05-06T01:02:04.748Z,2.77
2019-05-06T01:03:04.578Z,2.75
2019-05-06T01:04:04.684Z,2.74
2019-05-06T01:05:04.600Z,2.72
2019-05-06T01:06:04.558Z,2.67
2019-05-06T01:07:04.660Z,2.66
2019-05-06T01:08:04.538Z,2.64
2019-05-06T01:09:04.635Z,2.63
2019-05-06T01:10:04.526Z,2.61
2019-05-06T01:11:04.508Z,2.60
2019-05-06T01:12:04.505Z,2.61
2019-05-06T01:13:04.562Z,2.60
2019-05-06T01:14:04.471Z,2.59
2019-05-06T01:15:04.487Z,2.57
2019-05-06T01:16:04.458Z,2.56
2019-05-06T01:17:04.428Z,2.53
2019-05-06T01:18:04.431Z,2.49
2019-05-06T01:19:04.795Z,2.48
2019-05-06T01:20:04.420Z,2.45
2019-05-06T01:21:04.466Z,2.42
2019-05-06T01:22:04.712Z,2.41
2019-05-06T01:23:04.389Z,2.39
2019-05-06T01:24:04.370Z,2.36
2019-05-06T01:25:04.360Z,2.38
2019-05-06T01:26:04.437Z,2.41
2019-05-06T01:27:04.327Z,2.38
2019-05-06T01:28:04.406Z,2.38
2019-05-06T01:29:04.311Z,2.35
2019-05-06T01:30:04.469Z,2.34
2019-05-06T01:31:04.320Z,2.34
2019-05-06T01:32:04.366Z,2.30
2019-05-06T01:33:04.256Z,2.31
2019-05-06T01:34:04.475Z,2.34
2019-05-06T01:35:04.822Z,2.30
2019-05-06T01:36:04.529Z,2.31
2019-05-06T01:37:04.232Z,2.31
2019-05-06T01:38:04.206Z,2.34
2019-05-06T01:39:04.453Z,2.36
2019-05-06T01:40:04.306Z,2.38
2019-05-06T01:41:04.185Z,2.38
2019-05-06T01:42:04.502Z,2.39
2019-05-06T01:43:04.156Z,2.41
2019-05-06T01:44:04.365Z,2.41
2019-05-06T01:45:04.756Z,2.42
2019-05-06T01:46:04.692Z,2.42
2019-05-06T01:47:04.137Z,2.45
2019-05-06T01:48:04.161Z,2.46
2019-05-06T01:49:04.354Z,2.46
2019-05-06T01:50:04.531Z,2.48
2019-05-06T01:51:04.074Z,2.53
2019-05-06T01:52:04.240Z,2.53
2019-05-06T01:53:05.004Z,2.56
2019-05-06T01:54:04.055Z,2.56
2019-05-06T01:55:04.851Z,2.56
2019-05-06T01:56:04.005Z,2.57
2019-05-06T01:57:04.623Z,2.59
2019-05-06T01:58:05.087Z,2.59
2019-05-06T01:59:04.702Z,2.60
2019-05-06T02:00:04.810Z,2.61
2019-05-06T02:01:04.108Z,2.61
2019-05-06T02:02:04.469Z,2.61
2019-05-06T02:03:04.140Z,2.63
2019-05-06T02:04:04.381Z,2.63
2019-05-06T02:05:04.789Z,2.64
2019-05-06T02:06:04.842Z,2.63
2019-05-06T02:07:04.057Z,2.63
2019-05-06T02:08:04.113Z,2.63
2019-05-06T02:09:04.561Z,2.63
2019-05-06T02:10:04.052Z,2.61
2019-05-06T02:11:04.125Z,2.61
2019-05-06T02:12:04.572Z,2.61
2019-05-06T02:13:03.979Z,2.61
2019-05-06T02:14:04.742Z,2.63
2019-05-06T02:15:04.098Z,2.63
2019-05-06T02:16:03.993Z,2.63
2019-05-06T02:17:03.877Z,2.64
2019-05-06T02:18:04.236Z,2.64
2019-05-06T02:19:04.169Z,2.66
2019-05-06T02:20:04.219Z,2.67
2019-05-06T02:21:05.427Z,2.69
2019-05-06T02:22:04.332Z,2.71
2019-05-06T02:23:04.164Z,2.72
2019-05-06T02:24:04.248Z,2.74
2019-05-06T02:25:04.484Z,2.74
2019-05-06T02:26:04.833Z,2.77
2019-05-06T02:27:04.516Z,2.77
2019-05-06T02:28:04.031Z,2.75
2019-05-06T02:29:04.308Z,2.77
2019-05-06T02:30:05.376Z,2.78
2019-05-06T02:31:05.377Z,2.78
2019-05-06T02:32:19.856Z,2.79
2019-05-06T02:33:04.603Z,2.79
2019-05-06T02:34:05.113Z,2.82
2019-05-06T02:35:05.268Z,2.82
2019-05-06T02:36:06.407Z,2.84
2019-05-06T02:37:06.235Z,2.85
2019-05-06T02:38:04.823Z,2.87
2019-05-06T02:39:03.740Z,2.87
2019-05-06T02:40:04.382Z,2.85
2019-05-06T02:41:03.803Z,2.85
2019-05-06T02:42:04.127Z,2.89
2019-05-06T02:43:03.586Z,2.89
2019-05-06T02:44:03.763Z,2.87
2019-05-06T02:45:04.165Z,2.90
2019-05-06T02:46:04.224Z,2.92
2019-05-06T02:47:03.481Z,2.90
2019-05-06T02:48:04.474Z,2.93
2019-05-06T02:49:03.995Z,2.92
2019-05-06T02:50:04.455Z,2.92
2019-05-06T02:51:03.978Z,2.93
2019-05-06T02:52:03.451Z,2.93
2019-05-06T02:53:03.418Z,2.92
2019-05-06T02:54:03.565Z,2.92
2019-05-06T02:55:06.103Z,2.93
2019-05-06T02:56:04.358Z,2.95
2019-05-06T02:57:04.162Z,2.95
2019-05-06T02:58:03.372Z,2.97
2019-05-06T02:59:04.043Z,2.97
2019-05-06T03:00:05.165Z,2.99
2019-05-06T03:01:03.915Z,2.97
2019-05-06T03:02:03.694Z,3.00
2019-05-06T03:03:03.301Z,2.99
2019-05-06T03:04:04.429Z,3.00
2019-05-06T03:05:04.315Z,3.00
2019-05-06T03:06:04.219Z,3.02
2019-05-06T03:07:03.865Z,3.02
2019-05-06T03:08:03.455Z,3.02
2019-05-06T03:09:03.427Z,3.00
2019-05-06T03:10:04.098Z,3.00
2019-05-06T03:11:04.197Z,2.99
2019-05-06T03:12:03.871Z,3.00
2019-05-06T03:13:03.277Z,3.00
2019-05-06T03:14:03.461Z,2.99
2019-05-06T03:15:03.535Z,3.00
2019-05-06T03:16:05.944Z,3.00
2019-05-06T03:17:03.754Z,2.99
2019-05-06T03:18:03.304Z,2.97
2019-05-06T03:19:04.105Z,2.97
2019-05-06T03:20:04.205Z,2.99
2019-05-06T03:21:03.826Z,2.97
2019-05-06T03:22:03.529Z,2.97
2019-05-06T03:23:03.876Z,2.95
2019-05-06T03:24:03.941Z,2.97
2019-05-06T03:25:06.442Z,2.99
2019-05-06T03:26:03.763Z,2.99
2019-05-06T03:27:04.550Z,2.99
2019-05-06T03:28:04.238Z,3.00
2019-05-06T03:29:03.148Z,3.00
2019-05-06T03:30:04.169Z,3.03
2019-05-06T03:31:07.025Z,3.03
2019-05-06T03:32:07.016Z,3.03
2019-05-06T03:34:27.726Z,3.05
2019-05-06T03:35:24.941Z,3.06
2019-05-06T03:36:14.925Z,3.06
2019-05-06T03:37:07.436Z,3.06
2019-05-06T03:38:03.815Z,3.06
2019-05-06T03:39:03.176Z,3.06
2019-05-06T03:40:03.259Z,3.08
2019-05-06T03:41:03.271Z,3.10
2019-05-06T03:42:04.595Z,3.11
2019-05-06T03:43:02.970Z,3.13
2019-05-06T03:44:03.369Z,3.13
2019-05-06T03:45:04.185Z,3.13
2019-05-06T03:46:04.235Z,3.15
2019-05-06T03:47:05.432Z,3.15
2019-05-06T03:48:05.760Z,3.17
2019-05-06T03:49:03.656Z,3.20
2019-05-06T03:50:04.739Z,3.20
2019-05-06T03:51:04.012Z,3.21
2019-05-06T03:52:02.974Z,3.23
2019-05-06T03:53:03.221Z,3.23
2019-05-06T03:54:03.434Z,3.23
2019-05-06T03:55:03.583Z,3.24
2019-05-06T03:56:03.380Z,3.24
2019-05-06T03:57:03.237Z,3.24
2019-05-06T03:58:03.804Z,3.24
2019-05-06T03:59:02.921Z,3.26
2019-05-06T04:00:04.812Z,3.28
2019-05-06T04:01:03.777Z,3.28
2019-05-06T04:02:05.216Z,3.26
2019-05-06T04:03:03.276Z,3.28
2019-05-06T04:04:03.586Z,3.29
2019-05-06T04:05:03.879Z,3.28
2019-05-06T04:06:04.420Z,3.29
2019-05-06T04:07:03.365Z,3.29
2019-05-06T04:08:03.824Z,3.29
2019-05-06T04:09:03.686Z,3.32
2019-05-06T04:10:03.569Z,3.32
2019-05-06T04:11:03.150Z,3.33
2019-05-06T04:12:03.605Z,3.33
2019-05-06T04:13:04.156Z,3.33
2019-05-06T04:14:02.915Z,3.36
2019-05-06T04:15:03.961Z,3.39
2019-05-06T04:16:03.730Z,3.40
2019-05-06T04:17:03.238Z,3.40
2019-05-06T04:18:03.870Z,3.43
2019-05-06T04:19:04.177Z,3.43
2019-05-06T04:20:04.042Z,3.45
2019-05-06T04:21:03.787Z,3.45
2019-05-06T04:22:03.637Z,3.47
2019-05-06T04:23:05.914Z,3.47
2019-05-06T04:24:04.145Z,3.48
2019-05-06T04:25:03.941Z,3.48
2019-05-06T04:26:03.579Z,3.50
2019-05-06T04:27:03.221Z,3.51
2019-05-06T04:28:03.006Z,3.52
2019-05-06T04:29:03.939Z,3.52
2019-05-06T04:30:04.757Z,3.54
2019-05-06T04:31:02.703Z,3.54
2019-05-06T04:32:03.501Z,3.55
2019-05-06T04:33:03.267Z,3.57
2019-05-06T04:34:14.084Z,3.58
2019-05-06T04:35:04.381Z,3.60
2019-05-06T04:36:03.723Z,3.62
2019-05-06T04:37:03.624Z,3.62
2019-05-06T04:38:03.248Z,3.65
2019-05-06T04:39:04.158Z,3.66
2019-05-06T04:40:04.593Z,3.68
2019-05-06T04:41:02.924Z,3.69
2019-05-06T04:42:03.505Z,3.70
2019-05-06T04:43:03.690Z,3.72
2019-05-06T04:44:02.878Z,3.75
2019-05-06T04:45:04.682Z,3.78
2019-05-06T04:46:03.104Z,3.79
2019-05-06T04:47:05.036Z,3.84
2019-05-06T04:48:03.564Z,3.83
2019-05-06T04:49:04.056Z,3.84
2019-05-06T04:50:04.756Z,3.87
2019-05-06T04:51:03.409Z,3.88
2019-05-06T04:52:03.667Z,3.90
2019-05-06T04:53:04.716Z,3.93
2019-05-06T04:54:04.213Z,3.94
2019-05-06T04:55:03.420Z,3.94
2019-05-06T04:56:03.836Z,3.94
2019-05-06T04:57:04.854Z,3.96
2019-05-06T04:58:04.071Z,3.98
2019-05-06T04:59:05.732Z,3.98
2019-05-06T05:00:04.080Z,4.00
2019-05-06T05:01:04.067Z,4.02
2019-05-06T05:02:02.663Z,4.02
2019-05-06T05:03:03.003Z,4.02
2019-05-06T05:04:03.534Z,4.04
2019-05-06T05:05:04.037Z,4.06
2019-05-06T05:06:05.575Z,4.06
2019-05-06T05:07:03.362Z,4.08
2019-05-06T05:08:02.591Z,4.09
2019-05-06T05:09:02.850Z,4.09
2019-05-06T05:10:03.445Z,4.11
2019-05-06T05:11:03.586Z,4.11
2019-05-06T05:12:02.764Z,4.12
2019-05-06T05:13:03.584Z,4.09
2019-05-06T05:14:02.863Z,4.08
2019-05-06T05:15:03.287Z,4.09
2019-05-06T05:16:02.382Z,4.12
2019-05-06T05:17:02.299Z,4.12
2019-05-06T05:18:03.190Z,4.12
2019-05-06T05:19:02.788Z,4.14
2019-05-06T05:20:02.152Z,4.16
2019-05-06T05:21:02.446Z,4.20
2019-05-06T05:22:02.831Z,4.22
2019-05-06T05:23:02.311Z,4.26
2019-05-06T05:24:02.122Z,4.26
2019-05-06T05:25:03.478Z,4.30
2019-05-06T05:26:02.861Z,4.32
2019-05-06T05:27:03.149Z,4.34
2019-05-06T05:28:02.204Z,4.34
2019-05-06T05:29:02.806Z,4.34
2019-05-06T05:30:02.049Z,4.36
2019-05-06T05:31:03.067Z,4.34
2019-05-06T05:32:02.174Z,4.36
2019-05-06T05:33:02.634Z,4.34
2019-05-06T05:34:02.147Z,4.34
2019-05-06T05:35:02.177Z,4.36
2019-05-06T05:36:02.131Z,4.36
2019-05-06T05:37:03.006Z,4.37
2019-05-06T05:38:03.063Z,4.37
2019-05-06T05:39:03.293Z,4.40
2019-05-06T05:40:03.084Z,4.40
2019-05-06T05:41:03.086Z,4.42
2019-05-06T05:42:02.983Z,4.45
2019-05-06T05:43:02.869Z,4.48
2019-05-06T05:44:02.419Z,4.48
2019-05-06T05:45:02.654Z,4.51
2019-05-06T05:46:02.953Z,4.51
2019-05-06T05:47:03.424Z,4.51
2019-05-06T05:48:02.834Z,4.50
2019-05-06T05:49:02.878Z,4.48
2019-05-06T05:50:02.964Z,4.45
2019-05-06T05:51:03.356Z,4.44
2019-05-06T05:52:03.377Z,4.42
2019-05-06T05:53:02.476Z,4.42
2019-05-06T05:54:02.208Z,4.44
2019-05-06T05:55:02.738Z,4.47
2019-05-06T05:56:02.571Z,4.47
2019-05-06T05:57:02.377Z,4.48
2019-05-06T05:58:03.131Z,4.50
2019-05-06T05:59:03.317Z,4.52
2019-05-06T06:00:03.700Z,4.51
2019-05-06T06:01:03.954Z,4.52
2019-05-06T06:02:03.559Z,4.54
2019-05-06T06:03:02.929Z,4.55
2019-05-06T06:04:03.125Z,4.59
2019-05-06T06:05:02.538Z,4.63
2019-05-06T06:06:03.112Z,4.65
2019-05-06T06:07:02.665Z,4.67
2019-05-06T06:08:02.878Z,4.72
2019-05-06T06:09:03.098Z,4.77
2019-05-06T06:10:02.654Z,4.80
2019-05-06T06:11:01.267Z,4.85
2019-05-06T06:12:02.761Z,4.88
2019-05-06T06:13:02.159Z,4.92
2019-05-06T06:14:03.005Z,4.96
2019-05-06T06:15:02.268Z,5.00
2019-05-06T06:16:02.860Z,5.06
2019-05-06T06:17:02.062Z,5.07
2019-05-06T06:18:02.987Z,5.12
2019-05-06T06:19:03.069Z,5.15
2019-05-06T06:20:02.626Z,5.20
2019-05-06T06:21:17.043Z,5.24
2019-05-06T06:22:02.718Z,5.30
2019-05-06T06:23:02.952Z,5.35
2019-05-06T06:24:02.801Z,5.40
2019-05-06T06:25:03.998Z,5.45
2019-05-06T06:26:03.709Z,5.53
2019-05-06T06:27:02.899Z,5.61
2019-05-06T06:28:02.706Z,5.68
2019-05-06T06:29:03.122Z,5.76
2019-05-06T06:30:02.407Z,5.82
2019-05-06T06:31:02.907Z,5.90
2019-05-06T06:32:03.014Z,5.96
2019-05-06T06:33:02.589Z,6.01
2019-05-06T06:34:01.915Z,6.09
2019-05-06T06:35:10.508Z,6.12
2019-05-06T06:36:02.836Z,6.15
2019-05-06T06:37:02.620Z,6.14
2019-05-06T06:38:02.744Z,6.14
2019-05-06T06:39:02.121Z,6.12
2019-05-06T06:40:02.485Z,6.15
2019-05-06T06:41:02.785Z,6.19
2019-05-06T06:42:02.874Z,6.21
2019-05-06T06:43:02.160Z,6.25
2019-05-06T06:44:02.274Z,6.27
2019-05-06T06:45:03.270Z,6.25
2019-05-06T06:46:02.530Z,6.25
2019-05-06T06:47:02.090Z,6.27
2019-05-06T06:48:02.945Z,6.28
2019-05-06T06:49:03.089Z,6.27
2019-05-06T06:50:02.787Z,6.30
2019-05-06T06:51:03.307Z,6.31
2019-05-06T06:52:02.792Z,6.33
2019-05-06T06:53:02.858Z,6.36
2019-05-06T06:54:02.474Z,6.40
2019-05-06T06:55:02.282Z,6.43
2019-05-06T06:56:02.033Z,6.46
2019-05-06T06:57:06.190Z,6.51
2019-05-06T06:58:02.686Z,6.55
2019-05-06T06:59:02.547Z,6.54
2019-05-06T07:00:03.890Z,6.51
2019-05-06T07:01:02.970Z,6.51
2019-05-06T07:02:02.602Z,6.54
2019-05-06T07:03:02.572Z,6.55
2019-05-06T07:04:03.273Z,6.59
2019-05-06T07:05:02.410Z,6.64
2019-05-06T07:06:02.301Z,6.71
2019-05-06T07:07:02.928Z,6.73
2019-05-06T07:08:02.175Z,6.77
2019-05-06T07:09:02.613Z,6.85
2019-05-06T07:10:02.623Z,6.91
2019-05-06T07:11:02.206Z,6.97
2019-05-06T07:12:00.610Z,7.05
2019-05-06T07:13:02.694Z,7.12
2019-05-06T07:14:02.473Z,7.20
2019-05-06T07:15:02.287Z,7.24
2019-05-06T07:16:02.781Z,7.28
2019-05-06T07:17:02.464Z,7.28
2019-05-06T07:18:02.324Z,7.24
2019-05-06T07:19:02.959Z,7.23
2019-05-06T07:20:02.778Z,7.25
2019-05-06T07:21:04.405Z,7.25
2019-05-06T07:22:02.909Z,7.25
2019-05-06T07:23:01.937Z,7.21
2019-05-06T07:24:02.155Z,7.17
2019-05-06T07:25:03.710Z,7.17
2019-05-06T07:26:02.829Z,7.17
2019-05-06T07:27:00.417Z,7.21
2019-05-06T07:28:02.802Z,7.28
2019-05-06T07:29:03.971Z,7.34
2019-05-06T07:30:03.048Z,7.40
2019-05-06T07:31:16.691Z,7.46
2019-05-06T07:32:02.687Z,7.57
2019-05-06T07:33:01.396Z,7.68
2019-05-06T07:34:02.506Z,7.74
2019-05-06T07:35:02.311Z,7.74
2019-05-06T07:36:02.165Z,7.77
2019-05-06T07:37:00.297Z,7.79
2019-05-06T07:38:01.902Z,7.79
2019-05-06T07:39:03.920Z,7.82
2019-05-06T07:40:00.367Z,7.75
2019-05-06T07:41:04.206Z,7.72
2019-05-06T07:42:02.323Z,7.72
2019-05-06T07:43:02.271Z,7.74
2019-05-06T07:44:02.131Z,7.72
2019-05-06T07:45:00.210Z,7.67
2019-05-06T07:46:02.454Z,7.63
2019-05-06T07:47:00.302Z,7.61
2019-05-06T07:48:00.191Z,7.60
2019-05-06T07:49:02.992Z,7.60
2019-05-06T07:50:02.491Z,7.64
2019-05-06T07:51:00.158Z,7.72
2019-05-06T07:52:02.728Z,7.75
2019-05-06T07:53:02.234Z,7.75
2019-05-06T07:54:00.118Z,7.82
2019-05-06T07:55:02.374Z,7.89
2019-05-06T07:56:00.089Z,7.93
2019-05-06T07:57:02.250Z,8.00
2019-05-06T07:58:00.082Z,8.02
2019-05-06T07:59:00.081Z,8.04
2019-05-06T08:00:00.048Z,8.00
2019-05-06T08:01:02.432Z,7.98
2019-05-06T08:02:02.106Z,7.97
2019-05-06T08:03:02.315Z,8.01
2019-05-06T08:04:00.069Z,8.02
2019-05-06T08:05:02.414Z,8.02
2019-05-06T08:06:02.498Z,7.97
2019-05-06T08:07:00.059Z,7.92
2019-05-06T08:07:59.972Z,7.92
2019-05-06T08:08:59.971Z,7.97
2019-05-06T08:10:01.932Z,8.01
2019-05-06T08:10:59.999Z,8.05
2019-05-06T08:11:59.932Z,8.08
2019-05-06T08:13:02.490Z,8.05
2019-05-06T08:14:02.101Z,8.04
2019-05-06T08:14:59.911Z,8.11
2019-05-06T08:16:02.033Z,8.18
2019-05-06T08:17:02.079Z,8.22
2019-05-06T08:17:59.860Z,8.28
2019-05-06T08:18:59.840Z,8.26
2019-05-06T08:20:02.315Z,8.26
2019-05-06T08:20:59.920Z,8.28
2019-05-06T08:21:59.825Z,8.30
2019-05-06T08:23:01.979Z,8.34
2019-05-06T08:23:59.791Z,8.43
2019-05-06T08:24:59.781Z,8.52
2019-05-06T08:26:11.703Z,8.58
2019-05-06T08:27:02.825Z,8.68
2019-05-06T08:27:59.766Z,8.80
2019-05-06T08:28:59.744Z,8.87
2019-05-06T08:30:01.872Z,8.98
2019-05-06T08:30:59.731Z,9.08
2019-05-06T08:31:59.701Z,9.15
2019-05-06T08:32:59.692Z,9.13
2019-05-06T08:33:59.791Z,9.02
2019-05-06T08:34:59.682Z,9.02
2019-05-06T08:36:10.567Z,9.05
2019-05-06T08:37:02.457Z,9.13
2019-05-06T08:37:59.642Z,9.17
2019-05-06T08:38:59.645Z,9.17
2019-05-06T08:39:59.632Z,9.17
2019-05-06T08:40:59.626Z,9.13
2019-05-06T08:41:59.615Z,9.15
2019-05-06T08:42:59.608Z,9.23
2019-05-06T08:43:59.583Z,9.32
2019-05-06T08:44:59.586Z,9.39
2019-05-06T08:45:59.543Z,9.53
2019-05-06T08:46:59.553Z,9.68
2019-05-06T08:47:59.623Z,9.75
2019-05-06T08:48:59.603Z,9.87
2019-05-06T08:49:59.514Z,9.94
2019-05-06T08:50:59.507Z,10.01
2019-05-06T08:51:59.485Z,10.07
2019-05-06T08:52:59.503Z,10.14
2019-05-06T08:53:59.564Z,10.14
2019-05-06T08:55:02.199Z,10.04
2019-05-06T08:55:59.450Z,9.99
2019-05-06T08:56:59.444Z,10.02
2019-05-06T08:57:59.425Z,10.01
2019-05-06T08:58:59.486Z,10.09
2019-05-06T08:59:59.405Z,10.17
2019-05-06T09:00:59.419Z,10.18
2019-05-06T09:01:59.366Z,10.09
2019-05-06T09:02:59.365Z,10.18
2019-05-06T09:04:09.546Z,10.15
2019-05-06T09:05:02.738Z,10.12
2019-05-06T09:05:59.336Z,10.23
2019-05-06T09:06:59.415Z,10.40
2019-05-06T09:07:59.316Z,10.56
2019-05-06T09:08:59.319Z,10.63
2019-05-06T09:09:59.327Z,10.70
2019-05-06T09:10:59.292Z,10.79
2019-05-06T09:11:59.256Z,10.82
2019-05-06T09:12:59.275Z,10.78
2019-05-06T09:13:59.237Z,10.67
2019-05-06T09:14:59.246Z,10.53
2019-05-06T09:15:59.237Z,10.47
2019-05-06T09:16:59.227Z,10.38
2019-05-06T09:17:59.218Z,10.30
2019-05-06T09:18:59.289Z,10.32
2019-05-06T09:19:59.201Z,10.30
2019-05-06T09:20:59.186Z,10.32
2019-05-06T09:21:59.149Z,10.25
2019-05-06T09:22:59.229Z,10.17
2019-05-06T09:23:59.159Z,10.18
2019-05-06T09:24:59.136Z,10.38
2019-05-06T09:25:59.130Z,10.60
2019-05-06T09:26:59.109Z,10.76
2019-05-06T09:27:59.109Z,10.94
2019-05-06T09:28:59.099Z,11.10
2019-05-06T09:29:59.161Z,11.32
2019-05-06T09:30:59.070Z,11.37
2019-05-06T09:31:59.162Z,11.37
2019-05-06T09:32:59.058Z,11.52
2019-05-06T09:33:59.044Z,11.61
2019-05-06T09:34:59.023Z,11.67
2019-05-06T09:35:59.001Z,11.70
2019-05-06T09:36:59.024Z,11.78
2019-05-06T09:37:59.021Z,11.91
2019-05-06T09:38:58.981Z,11.79
2019-05-06T09:39:58.961Z,11.62
2019-05-06T09:40:58.983Z,11.46
2019-05-06T09:41:58.941Z,11.18
2019-05-06T09:42:58.945Z,11.04
2019-05-06T09:43:59.013Z,11.00
2019-05-06T09:44:59.012Z,11.07
2019-05-06T09:45:58.903Z,11.14
2019-05-06T09:46:58.973Z,11.17
2019-05-06T09:47:58.885Z,11.11
2019-05-06T09:48:58.881Z,10.97
2019-05-06T09:49:58.877Z,10.84
2019-05-06T09:50:58.923Z,10.81
2019-05-06T09:51:58.850Z,10.88
2019-05-06T09:52:58.834Z,10.96
2019-05-06T09:54:01.492Z,10.99
2019-05-06T09:55:03.002Z,11.18
2019-05-06T09:55:58.796Z,11.42
2019-05-06T09:56:58.875Z,11.60
2019-05-06T09:57:58.808Z,11.62
2019-05-06T09:58:58.778Z,11.62
2019-05-06T09:59:58.755Z,11.64
2019-05-06T10:00:58.768Z,11.64
2019-05-06T10:01:58.725Z,11.65
2019-05-06T10:02:58.798Z,11.55
2019-05-06T10:03:58.705Z,11.46
2019-05-06T10:04:58.710Z,11.39
2019-05-06T10:05:58.680Z,11.39
2019-05-06T10:07:00.037Z,11.39
2019-05-06T10:07:58.726Z,11.40
2019-05-06T10:08:58.667Z,11.40
2019-05-06T10:09:58.646Z,11.35
2019-05-06T10:10:59.911Z,11.25
2019-05-06T10:11:58.706Z,11.18
2019-05-06T10:12:58.607Z,11.15
2019-05-06T10:13:58.612Z,11.19
2019-05-06T10:14:58.597Z,11.25
2019-05-06T10:16:05.626Z,11.35
2019-05-06T10:16:58.554Z,11.37
2019-05-06T10:17:58.634Z,11.44
2019-05-06T10:18:58.547Z,11.58
2019-05-06T10:19:58.524Z,11.65
2019-05-06T10:20:58.544Z,11.70
2019-05-06T10:21:58.505Z,11.75
2019-05-06T10:22:58.505Z,11.91
2019-05-06T10:23:58.495Z,12.01
2019-05-06T10:24:58.486Z,12.24
2019-05-06T10:25:58.469Z,12.53
2019-05-06T10:26:58.465Z,12.60
2019-05-06T10:27:58.516Z,12.53
2019-05-06T10:28:58.536Z,12.57
2019-05-06T10:29:58.428Z,12.72
2019-05-06T10:30:58.407Z,12.72
2019-05-06T10:31:58.407Z,12.79
2019-05-06T10:32:58.398Z,12.79
2019-05-06T10:33:58.407Z,12.86
2019-05-06T10:34:58.378Z,13.01
2019-05-06T10:35:58.371Z,13.25
2019-05-06T10:37:11.648Z,13.49
2019-05-06T10:37:59.338Z,13.70
2019-05-06T10:38:58.431Z,13.84
2019-05-06T10:39:58.329Z,13.84
2019-05-06T10:41:03.938Z,13.85
2019-05-06T10:41:59.292Z,13.85
2019-05-06T10:42:58.278Z,13.88
2019-05-06T10:43:58.300Z,13.84
2019-05-06T10:44:58.275Z,13.64
2019-05-06T10:46:01.041Z,13.48
2019-05-06T10:46:58.230Z,13.45
2019-05-06T10:47:58.221Z,13.42
2019-05-06T10:48:58.211Z,13.19
2019-05-06T10:49:58.303Z,13.01
2019-05-06T10:50:58.202Z,12.83
2019-05-06T10:51:58.208Z,12.64
2019-05-06T10:52:58.163Z,12.71
2019-05-06T10:53:58.261Z,12.89
2019-05-06T10:54:58.251Z,13.07
2019-05-06T10:55:58.156Z,13.28
2019-05-06T10:56:58.143Z,13.45
2019-05-06T10:57:58.123Z,13.42
2019-05-06T10:58:58.103Z,13.38
2019-05-06T10:59:58.194Z,13.33
2019-05-06T11:00:58.086Z,13.42
2019-05-06T11:01:58.078Z,13.55
2019-05-06T11:02:58.056Z,13.57
2019-05-06T11:03:58.059Z,13.71
2019-05-06T11:04:58.072Z,13.81
2019-05-06T11:05:58.151Z,13.78
2019-05-06T11:06:58.039Z,13.70
2019-05-06T11:07:58.031Z,13.70
2019-05-06T11:08:57.987Z,13.64
2019-05-06T11:09:57.997Z,13.45
2019-05-06T11:11:11.127Z,13.32
2019-05-06T11:11:58.977Z,13.23
2019-05-06T11:12:57.950Z,13.22
2019-05-06T11:13:57.961Z,13.26
2019-05-06T11:14:57.948Z,13.30
2019-05-06T11:15:57.961Z,13.25
2019-05-06T11:16:57.908Z,13.23
2019-05-06T11:17:57.989Z,13.14
2019-05-06T11:18:57.882Z,13.07
2019-05-06T11:19:57.879Z,13.01
2019-05-06T11:20:57.860Z,12.93
2019-05-06T11:21:57.863Z,12.87
2019-05-06T11:22:57.883Z,12.83
2019-05-06T11:23:57.828Z,12.75
2019-05-06T11:24:57.860Z,12.74
2019-05-06T11:25:57.820Z,12.71
2019-05-06T11:26:57.800Z,12.65
2019-05-06T11:27:57.801Z,12.68
2019-05-06T11:28:57.871Z,12.85
2019-05-06T11:29:57.762Z,13.08
2019-05-06T11:30:57.792Z,13.29
2019-05-06T11:31:57.792Z,13.48
2019-05-06T11:32:57.741Z,13.62
2019-05-06T11:33:57.742Z,13.70
2019-05-06T11:34:57.722Z,13.79
2019-05-06T11:35:57.728Z,13.85
2019-05-06T11:36:57.695Z,13.82
2019-05-06T11:37:57.673Z,13.81
2019-05-06T11:38:57.676Z,13.81
2019-05-06T11:39:57.654Z,13.71
2019-05-06T11:40:57.654Z,13.63
2019-05-06T11:42:14.886Z,13.52
2019-05-06T11:42:58.634Z,13.46
2019-05-06T11:43:57.604Z,13.29
2019-05-06T11:44:57.615Z,12.85
2019-05-06T11:45:57.595Z,12.62
2019-05-06T11:46:57.589Z,12.64
2019-05-06T11:47:57.617Z,12.71
2019-05-06T11:48:57.567Z,12.82
2019-05-06T11:49:57.561Z,12.87
2019-05-06T11:50:57.526Z,12.82
2019-05-06T11:51:57.606Z,12.72
2019-05-06T11:52:57.607Z,12.64
2019-05-06T11:53:57.517Z,12.64
2019-05-06T11:54:57.515Z,12.64
2019-05-06T11:55:57.510Z,12.65
2019-05-06T11:56:58.604Z,12.70
2019-05-06T11:57:57.456Z,12.77
2019-05-06T11:58:57.501Z,12.82
2019-05-06T11:59:57.450Z,12.82
2019-05-06T12:00:57.438Z,12.86
2019-05-06T12:01:57.441Z,12.83
2019-05-06T12:02:57.419Z,12.77
2019-05-06T12:03:57.412Z,12.65
2019-05-06T12:04:57.531Z,12.60
2019-05-06T12:05:57.379Z,12.56
2019-05-06T12:07:10.239Z,12.57
2019-05-06T12:08:04.624Z,12.57
2019-05-06T12:08:58.348Z,12.50
2019-05-06T12:09:57.354Z,12.47
2019-05-06T12:10:57.339Z,12.45
2019-05-06T12:11:57.351Z,12.47
2019-05-06T12:12:57.391Z,12.52
2019-05-06T12:13:57.291Z,12.56
2019-05-06T12:14:57.281Z,12.59
2019-05-06T12:15:57.293Z,12.70
2019-05-06T12:16:57.281Z,12.82
2019-05-06T12:17:57.369Z,12.89
2019-05-06T12:18:59.786Z,13.01
2019-05-06T12:19:57.233Z,13.11
2019-05-06T12:21:08.209Z,13.26
2019-05-06T12:21:58.212Z,13.38
2019-05-06T12:22:57.202Z,13.38
2019-05-06T12:23:57.262Z,13.38
2019-05-06T12:24:57.180Z,13.42
2019-05-06T12:25:57.166Z,13.44
2019-05-06T12:26:57.165Z,13.48
2019-05-06T12:27:57.212Z,13.54
2019-05-06T12:28:57.133Z,13.54
2019-05-06T12:29:57.166Z,13.57
2019-05-06T12:30:57.129Z,13.62
2019-05-06T12:31:57.103Z,13.66
2019-05-06T12:32:57.084Z,13.71
2019-05-06T12:33:57.165Z,13.71
2019-05-06T12:34:57.045Z,13.69
2019-05-06T12:35:57.055Z,13.70
2019-05-06T12:36:57.057Z,13.78
2019-05-06T12:37:57.038Z,13.97
2019-05-06T12:38:57.145Z,13.88
2019-05-06T12:39:57.010Z,13.84
2019-05-06T12:40:59.753Z,13.81
2019-05-06T12:41:56.986Z,13.79
2019-05-06T12:42:56.978Z,13.79
2019-05-06T12:43:56.976Z,13.77
2019-05-06T12:44:56.969Z,13.69
2019-05-06T12:45:56.940Z,13.44
2019-05-06T12:46:59.823Z,13.30
2019-05-06T12:47:56.919Z,13.26
2019-05-06T12:48:57.007Z,13.26
2019-05-06T12:49:56.898Z,13.32
2019-05-06T12:50:56.891Z,13.38
2019-05-06T12:51:56.892Z,13.42
2019-05-06T12:52:57.893Z,13.39
2019-05-06T12:53:56.889Z,13.28
2019-05-06T12:55:14.694Z,13.22
2019-05-06T12:55:57.819Z,13.14
2019-05-06T12:56:56.819Z,13.11
2019-05-06T12:57:56.821Z,13.11
2019-05-06T12:58:56.810Z,13.15
2019-05-06T12:59:56.872Z,13.22
2019-05-06T13:00:56.794Z,13.32
2019-05-06T13:01:56.800Z,13.42
2019-05-06T13:02:56.783Z,13.36
2019-05-06T13:03:56.841Z,13.25
2019-05-06T13:05:00.706Z,13.19
2019-05-06T13:05:57.730Z,13.14
2019-05-06T13:06:56.712Z,13.07
2019-05-06T13:07:56.690Z,12.97
2019-05-06T13:09:01.643Z,12.97
2019-05-06T13:09:57.694Z,12.96